sensor_id;sensor_type;location;lat;lon;timestamp;temperature;humidity
66586;SHT30;53444;45.822;16.092;2023-05-19T00:00:42;12.52;87.51
66586;SHT30;53444;45.822;16.092;2023-05-19T00:03:10;12.57;87.37
66586;SHT30;53444;45.822;16.092;2023-05-19T00:05:38;12.64;87.74
66586;SHT30;53444;45.822;16.092;2023-05-19T00:08:08;12.64;87.38
66586;SHT30;53444;45.822;16.092;2023-05-19T00:10:38;12.64;87.65
66586;SHT30;53444;45.822;16.092;2023-05-19T00:13:05;12.62;87.99
66586;SHT30;53444;45.822;16.092;2023-05-19T00:15:32;12.57;88.38
66586;SHT30;53444;45.822;16.092;2023-05-19T00:17:59;12.57;88.78
66586;SHT30;53444;45.822;16.092;2023-05-19T00:20:27;12.51;89.31
66586;SHT30;53444;45.822;16.092;2023-05-19T00:22:54;12.55;89.30
66586;SHT30;53444;45.822;16.092;2023-05-19T00:25:20;12.50;89.29
66586;SHT30;53444;45.822;16.092;2023-05-19T00:27:48;12.48;89.55
66586;SHT30;53444;45.822;16.092;2023-05-19T00:30:15;12.48;89.53
66586;SHT30;53444;45.822;16.092;2023-05-19T00:32:41;12.45;90.05
66586;SHT30;53444;45.822;16.092;2023-05-19T00:35:08;12.41;90.43
66586;SHT30;53444;45.822;16.092;2023-05-19T00:37:35;12.41;90.77
66586;SHT30;53444;45.822;16.092;2023-05-19T00:40:02;12.38;91.07
66586;SHT30;53444;45.822;16.092;2023-05-19T00:42:30;12.30;91.78
66586;SHT30;53444;45.822;16.092;2023-05-19T00:44:58;12.20;92.00
66586;SHT30;53444;45.822;16.092;2023-05-19T00:47:25;12.26;91.82
66586;SHT30;53444;45.822;16.092;2023-05-19T00:49:52;12.14;91.74
66586;SHT30;53444;45.822;16.092;2023-05-19T00:52:18;12.10;92.03
66586;SHT30;53444;45.822;16.092;2023-05-19T00:54:45;12.09;92.23
66586;SHT30;53444;45.822;16.092;2023-05-19T00:57:12;12.06;92.38
66586;SHT30;53444;45.822;16.092;2023-05-19T00:59:39;12.06;92.28
66586;SHT30;53444;45.822;16.092;2023-05-19T01:02:07;12.03;92.22
66586;SHT30;53444;45.822;16.092;2023-05-19T01:04:35;12.01;92.48
66586;SHT30;53444;45.822;16.092;2023-05-19T01:07:04;12.07;92.18
66586;SHT30;53444;45.822;16.092;2023-05-19T01:09:30;12.01;92.23
66586;SHT30;53444;45.822;16.092;2023-05-19T01:11:57;12.04;92.14
66586;SHT30;53444;45.822;16.092;2023-05-19T01:14:24;12.09;92.10
66586;SHT30;53444;45.822;16.092;2023-05-19T01:16:55;12.03;92.29
66586;SHT30;53444;45.822;16.092;2023-05-19T01:19:39;11.99;92.25
66586;SHT30;53444;45.822;16.092;2023-05-19T01:22:20;12.01;92.16
66586;SHT30;53444;45.822;16.092;2023-05-19T01:25:14;11.99;92.29
66586;SHT30;53444;45.822;16.092;2023-05-19T01:28:11;12.03;92.09
66586;SHT30;53444;45.822;16.092;2023-05-19T01:30:43;12.03;92.24
66586;SHT30;53444;45.822;16.092;2023-05-19T01:33:13;12.00;92.33
66586;SHT30;53444;45.822;16.092;2023-05-19T01:35:41;11.99;92.33
66586;SHT30;53444;45.822;16.092;2023-05-19T01:38:09;12.03;92.03
66586;SHT30;53444;45.822;16.092;2023-05-19T01:40:37;12.01;92.32
66586;SHT30;53444;45.822;16.092;2023-05-19T01:43:04;11.99;92.15
66586;SHT30;53444;45.822;16.092;2023-05-19T01:45:32;12.07;92.02
66586;SHT30;53444;45.822;16.092;2023-05-19T01:48:01;12.00;92.07
66586;SHT30;53444;45.822;16.092;2023-05-19T01:50:29;12.00;92.23
66586;SHT30;53444;45.822;16.092;2023-05-19T01:52:56;12.01;92.07
66586;SHT30;53444;45.822;16.092;2023-05-19T01:55:23;12.01;91.92
66586;SHT30;53444;45.822;16.092;2023-05-19T01:57:57;11.96;92.17
66586;SHT30;53444;45.822;16.092;2023-05-19T02:00:30;12.04;92.02
66586;SHT30;53444;45.822;16.092;2023-05-19T02:03:11;12.03;91.96
66586;SHT30;53444;45.822;16.092;2023-05-19T02:05:45;12.06;91.99
66586;SHT30;53444;45.822;16.092;2023-05-19T02:08:21;12.07;91.92
66586;SHT30;53444;45.822;16.092;2023-05-19T02:10:54;11.99;92.19
66586;SHT30;53444;45.822;16.092;2023-05-19T02:13:23;12.00;92.01
66586;SHT30;53444;45.822;16.092;2023-05-19T02:15:54;11.85;92.44
66586;SHT30;53444;45.822;16.092;2023-05-19T02:18:27;11.90;92.61
66586;SHT30;53444;45.822;16.092;2023-05-19T02:20:54;11.93;92.33
66586;SHT30;53444;45.822;16.092;2023-05-19T02:23:21;11.85;92.66
66586;SHT30;53444;45.822;16.092;2023-05-19T02:25:47;11.91;92.30
66586;SHT30;53444;45.822;16.092;2023-05-19T02:28:14;11.86;92.48
66586;SHT30;53444;45.822;16.092;2023-05-19T02:30:41;11.86;92.64
66586;SHT30;53444;45.822;16.092;2023-05-19T02:33:07;11.83;92.52
66586;SHT30;53444;45.822;16.092;2023-05-19T02:35:36;11.75;92.85
66586;SHT30;53444;45.822;16.092;2023-05-19T02:38:03;11.78;92.96
66586;SHT30;53444;45.822;16.092;2023-05-19T02:40:30;11.78;93.07
66586;SHT30;53444;45.822;16.092;2023-05-19T02:42:57;11.63;93.27
66586;SHT30;53444;45.822;16.092;2023-05-19T02:45:23;11.72;93.28
66586;SHT30;53444;45.822;16.092;2023-05-19T02:47:52;11.70;93.22
66586;SHT30;53444;45.822;16.092;2023-05-19T02:50:19;11.63;93.66
66586;SHT30;53444;45.822;16.092;2023-05-19T02:52:48;11.61;93.75
66586;SHT30;53444;45.822;16.092;2023-05-19T02:55:14;11.54;94.22
66586;SHT30;53444;45.822;16.092;2023-05-19T02:57:41;11.55;94.34
66586;SHT30;53444;45.822;16.092;2023-05-19T03:00:09;11.56;94.26
66586;SHT30;53444;45.822;16.092;2023-05-19T03:02:36;11.58;94.47
66586;SHT30;53444;45.822;16.092;2023-05-19T03:05:04;11.59;94.33
66586;SHT30;53444;45.822;16.092;2023-05-19T03:07:32;11.59;94.26
66586;SHT30;53444;45.822;16.092;2023-05-19T03:10:00;11.66;94.14
66586;SHT30;53444;45.822;16.092;2023-05-19T03:12:28;11.63;94.38
66586;SHT30;53444;45.822;16.092;2023-05-19T03:14:55;11.59;94.59
66586;SHT30;53444;45.822;16.092;2023-05-19T03:17:22;11.58;94.94
66586;SHT30;53444;45.822;16.092;2023-05-19T03:19:49;11.58;95.01
66586;SHT30;53444;45.822;16.092;2023-05-19T03:22:15;11.56;95.25
66586;SHT30;53444;45.822;16.092;2023-05-19T03:24:43;11.48;95.64
66586;SHT30;53444;45.822;16.092;2023-05-19T03:27:11;11.48;95.93
66586;SHT30;53444;45.822;16.092;2023-05-19T03:29:38;11.52;95.80
66586;SHT30;53444;45.822;16.092;2023-05-19T03:32:05;11.49;95.92
66586;SHT30;53444;45.822;16.092;2023-05-19T03:34:31;11.48;95.86
66586;SHT30;53444;45.822;16.092;2023-05-19T03:36:59;11.46;95.96
66586;SHT30;53444;45.822;16.092;2023-05-19T03:39:26;11.49;95.86
66586;SHT30;53444;45.822;16.092;2023-05-19T03:41:52;11.51;95.96
66586;SHT30;53444;45.822;16.092;2023-05-19T03:44:21;11.52;96.07
66586;SHT30;53444;45.822;16.092;2023-05-19T03:46:48;11.40;96.28
66586;SHT30;53444;45.822;16.092;2023-05-19T03:49:15;11.52;95.89
66586;SHT30;53444;45.822;16.092;2023-05-19T03:51:41;11.55;95.63
66586;SHT30;53444;45.822;16.092;2023-05-19T03:54:08;11.55;95.91
66586;SHT30;53444;45.822;16.092;2023-05-19T03:56:38;11.54;95.73
66586;SHT30;53444;45.822;16.092;2023-05-19T03:59:05;11.59;96.07
66586;SHT30;53444;45.822;16.092;2023-05-19T04:01:33;11.65;95.82
66586;SHT30;53444;45.822;16.092;2023-05-19T04:04:00;11.54;95.51
66586;SHT30;53444;45.822;16.092;2023-05-19T04:06:27;11.52;95.53
66586;SHT30;53444;45.822;16.092;2023-05-19T04:08:53;11.43;96.04
66586;SHT30;53444;45.822;16.092;2023-05-19T04:11:20;11.46;95.89
66586;SHT30;53444;45.822;16.092;2023-05-19T04:13:47;11.32;96.55
66586;SHT30;53444;45.822;16.092;2023-05-19T04:16:13;11.43;96.16
66586;SHT30;53444;45.822;16.092;2023-05-19T04:18:41;11.42;96.20
66586;SHT30;53444;45.822;16.092;2023-05-19T04:21:09;11.52;96.18
66586;SHT30;53444;45.822;16.092;2023-05-19T04:23:36;11.48;96.29
66586;SHT30;53444;45.822;16.092;2023-05-19T04:26:03;11.56;95.92
66586;SHT30;53444;45.822;16.092;2023-05-19T04:28:31;11.61;96.13
66586;SHT30;53444;45.822;16.092;2023-05-19T04:31:00;11.63;95.80
66586;SHT30;53444;45.822;16.092;2023-05-19T04:33:27;11.69;95.52
66586;SHT30;53444;45.822;16.092;2023-05-19T04:35:55;11.70;95.34
66586;SHT30;53444;45.822;16.092;2023-05-19T04:38:22;11.70;95.53
66586;SHT30;53444;45.822;16.092;2023-05-19T04:40:49;11.70;95.64
66586;SHT30;53444;45.822;16.092;2023-05-19T04:43:16;11.70;95.57
66586;SHT30;53444;45.822;16.092;2023-05-19T04:45:45;11.76;95.46
66586;SHT30;53444;45.822;16.092;2023-05-19T04:48:14;11.75;95.48
66586;SHT30;53444;45.822;16.092;2023-05-19T04:50:41;11.78;95.30
66586;SHT30;53444;45.822;16.092;2023-05-19T04:53:09;11.79;95.24
66586;SHT30;53444;45.822;16.092;2023-05-19T04:55:36;11.82;95.06
66586;SHT30;53444;45.822;16.092;2023-05-19T04:58:03;11.86;94.87
66586;SHT30;53444;45.822;16.092;2023-05-19T05:00:30;11.96;94.98
66586;SHT30;53444;45.822;16.092;2023-05-19T05:03:00;11.96;94.92
66586;SHT30;53444;45.822;16.092;2023-05-19T05:05:29;11.97;94.96
66586;SHT30;53444;45.822;16.092;2023-05-19T05:07:56;11.94;95.10
66586;SHT30;53444;45.822;16.092;2023-05-19T05:10:24;11.97;94.98
66586;SHT30;53444;45.822;16.092;2023-05-19T05:12:51;12.01;94.84
66586;SHT30;53444;45.822;16.092;2023-05-19T05:15:19;12.10;94.75
66586;SHT30;53444;45.822;16.092;2023-05-19T05:17:47;12.16;94.48
66586;SHT30;53444;45.822;16.092;2023-05-19T05:20:14;12.07;95.09
66586;SHT30;53444;45.822;16.092;2023-05-19T05:22:41;12.20;94.25
66586;SHT30;53444;45.822;16.092;2023-05-19T05:25:10;12.24;94.10
66586;SHT30;53444;45.822;16.092;2023-05-19T05:27:38;12.30;93.98
66586;SHT30;53444;45.822;16.092;2023-05-19T05:30:06;12.30;94.04
66586;SHT30;53444;45.822;16.092;2023-05-19T05:32:33;12.38;94.01
66586;SHT30;53444;45.822;16.092;2023-05-19T05:35:00;12.42;93.36
66586;SHT30;53444;45.822;16.092;2023-05-19T05:37:26;12.51;93.23
66586;SHT30;53444;45.822;16.092;2023-05-19T05:39:53;12.58;93.13
66586;SHT30;53444;45.822;16.092;2023-05-19T05:42:19;12.69;93.02
66586;SHT30;53444;45.822;16.092;2023-05-19T05:44:47;12.78;92.59
66586;SHT30;53444;45.822;16.092;2023-05-19T05:47:14;12.82;92.41
66586;SHT30;53444;45.822;16.092;2023-05-19T05:49:42;12.82;92.43
66586;SHT30;53444;45.822;16.092;2023-05-19T05:52:13;12.85;91.94
66586;SHT30;53444;45.822;16.092;2023-05-19T05:54:41;12.95;91.91
66586;SHT30;53444;45.822;16.092;2023-05-19T05:57:09;12.95;91.28
66586;SHT30;53444;45.822;16.092;2023-05-19T05:59:35;12.95;90.35
66586;SHT30;53444;45.822;16.092;2023-05-19T06:02:04;13.22;91.08
66586;SHT30;53444;45.822;16.092;2023-05-19T06:04:31;13.46;90.28
66586;SHT30;53444;45.822;16.092;2023-05-19T06:06:57;13.69;90.02
66586;SHT30;53444;45.822;16.092;2023-05-19T06:09:26;13.70;88.98
66586;SHT30;53444;45.822;16.092;2023-05-19T06:11:52;13.78;88.60
66586;SHT30;53444;45.822;16.092;2023-05-19T06:14:19;13.87;88.66
66586;SHT30;53444;45.822;16.092;2023-05-19T06:16:46;13.88;88.25
66586;SHT30;53444;45.822;16.092;2023-05-19T06:19:14;13.93;88.22
66586;SHT30;53444;45.822;16.092;2023-05-19T06:21:41;14.07;87.63
66586;SHT30;53444;45.822;16.092;2023-05-19T06:24:08;13.95;87.98
66586;SHT30;53444;45.822;16.092;2023-05-19T06:26:34;13.71;87.45
66586;SHT30;53444;45.822;16.092;2023-05-19T06:29:01;13.87;87.89
66586;SHT30;53444;45.822;16.092;2023-05-19T06:31:28;13.93;87.92
66586;SHT30;53444;45.822;16.092;2023-05-19T06:33:55;13.87;87.55
66586;SHT30;53444;45.822;16.092;2023-05-19T06:36:23;13.90;87.32
66586;SHT30;53444;45.822;16.092;2023-05-19T06:38:50;13.77;86.98
66586;SHT30;53444;45.822;16.092;2023-05-19T06:41:17;13.75;87.05
66586;SHT30;53444;45.822;16.092;2023-05-19T06:43:44;13.74;87.63
66586;SHT30;53444;45.822;16.092;2023-05-19T06:46:10;13.73;87.90
66586;SHT30;53444;45.822;16.092;2023-05-19T06:48:41;13.60;87.51
66586;SHT30;53444;45.822;16.092;2023-05-19T06:51:08;13.57;88.05
66586;SHT30;53444;45.822;16.092;2023-05-19T06:53:36;13.54;88.11
66586;SHT30;53444;45.822;16.092;2023-05-19T06:56:03;13.67;87.74
66586;SHT30;53444;45.822;16.092;2023-05-19T06:58:30;13.64;87.61
66586;SHT30;53444;45.822;16.092;2023-05-19T07:00:57;13.69;87.81
66586;SHT30;53444;45.822;16.092;2023-05-19T07:03:24;13.70;87.74
66586;SHT30;53444;45.822;16.092;2023-05-19T07:05:51;13.83;87.98
66586;SHT30;53444;45.822;16.092;2023-05-19T07:08:18;14.04;87.24
66586;SHT30;53444;45.822;16.092;2023-05-19T07:10:46;14.14;86.23
66586;SHT30;53444;45.822;16.092;2023-05-19T07:13:12;14.11;86.93
66586;SHT30;53444;45.822;16.092;2023-05-19T07:15:39;14.25;86.13
66586;SHT30;53444;45.822;16.092;2023-05-19T07:18:06;14.20;86.60
66586;SHT30;53444;45.822;16.092;2023-05-19T07:20:32;14.63;85.49
66586;SHT30;53444;45.822;16.092;2023-05-19T07:22:59;14.89;84.91
66586;SHT30;53444;45.822;16.092;2023-05-19T07:25:26;14.93;84.09
66586;SHT30;53444;45.822;16.092;2023-05-19T07:27:56;14.96;84.17
66586;SHT30;53444;45.822;16.092;2023-05-19T07:30:23;14.92;84.20
66586;SHT30;53444;45.822;16.092;2023-05-19T07:32:49;14.92;83.97
66586;SHT30;53444;45.822;16.092;2023-05-19T07:35:16;14.77;84.80
66586;SHT30;53444;45.822;16.092;2023-05-19T07:37:43;14.90;84.48
66586;SHT30;53444;45.822;16.092;2023-05-19T07:40:10;14.85;83.94
66586;SHT30;53444;45.822;16.092;2023-05-19T07:42:36;14.80;84.76
66586;SHT30;53444;45.822;16.092;2023-05-19T07:45:06;14.61;84.39
66586;SHT30;53444;45.822;16.092;2023-05-19T07:47:32;14.42;85.10
66586;SHT30;53444;45.822;16.092;2023-05-19T07:49:59;14.22;85.25
66586;SHT30;53444;45.822;16.092;2023-05-19T07:52:26;14.18;85.41
66586;SHT30;53444;45.822;16.092;2023-05-19T07:54:52;14.21;85.53
66586;SHT30;53444;45.822;16.092;2023-05-19T07:57:19;14.45;85.45
66586;SHT30;53444;45.822;16.092;2023-05-19T07:59:46;14.73;85.18
66586;SHT30;53444;45.822;16.092;2023-05-19T08:02:14;14.90;84.10
66586;SHT30;53444;45.822;16.092;2023-05-19T08:04:40;14.86;83.89
66586;SHT30;53444;45.822;16.092;2023-05-19T08:07:07;14.76;84.43
66586;SHT30;53444;45.822;16.092;2023-05-19T08:09:34;15.06;83.70
66586;SHT30;53444;45.822;16.092;2023-05-19T08:12:00;15.19;83.16
66586;SHT30;53444;45.822;16.092;2023-05-19T08:14:29;15.31;82.64
66586;SHT30;53444;45.822;16.092;2023-05-19T08:16:57;15.48;82.28
66586;SHT30;53444;45.822;16.092;2023-05-19T08:19:25;15.61;81.09
66586;SHT30;53444;45.822;16.092;2023-05-19T08:21:52;15.50;81.40
66586;SHT30;53444;45.822;16.092;2023-05-19T08:24:18;15.30;82.24
66586;SHT30;53444;45.822;16.092;2023-05-19T08:26:45;15.54;82.24
66586;SHT30;53444;45.822;16.092;2023-05-19T08:29:12;15.65;82.29
66586;SHT30;53444;45.822;16.092;2023-05-19T08:31:38;15.65;81.64
66586;SHT30;53444;45.822;16.092;2023-05-19T08:34:05;15.68;81.34
66586;SHT30;53444;45.822;16.092;2023-05-19T08:36:33;15.72;81.18
66586;SHT30;53444;45.822;16.092;2023-05-19T08:39:00;15.79;80.09
66586;SHT30;53444;45.822;16.092;2023-05-19T08:41:26;15.37;81.88
66586;SHT30;53444;45.822;16.092;2023-05-19T08:43:53;15.43;81.66
66586;SHT30;53444;45.822;16.092;2023-05-19T08:46:21;15.75;80.78
66586;SHT30;53444;45.822;16.092;2023-05-19T08:48:53;15.96;80.88
66586;SHT30;53444;45.822;16.092;2023-05-19T08:51:26;16.01;80.25
66586;SHT30;53444;45.822;16.092;2023-05-19T08:54:03;16.22;80.30
66586;SHT30;53444;45.822;16.092;2023-05-19T08:56:33;16.16;80.52
66586;SHT30;53444;45.822;16.092;2023-05-19T08:59:00;16.05;79.75
66586;SHT30;53444;45.822;16.092;2023-05-19T09:01:28;16.02;79.83
66586;SHT30;53444;45.822;16.092;2023-05-19T09:03:55;15.77;80.74
66586;SHT30;53444;45.822;16.092;2023-05-19T09:06:22;16.19;80.37
66586;SHT30;53444;45.822;16.092;2023-05-19T09:08:49;16.40;79.89
66586;SHT30;53444;45.822;16.092;2023-05-19T09:11:17;16.52;78.57
66586;SHT30;53444;45.822;16.092;2023-05-19T09:13:44;16.76;78.35
66586;SHT30;53444;45.822;16.092;2023-05-19T09:16:11;17.24;77.79
66586;SHT30;53444;45.822;16.092;2023-05-19T09:18:38;17.29;78.46
66586;SHT30;53444;45.822;16.092;2023-05-19T09:21:05;17.45;77.67
66586;SHT30;53444;45.822;16.092;2023-05-19T09:23:32;17.27;76.98
66586;SHT30;53444;45.822;16.092;2023-05-19T09:26:01;17.18;77.74
66586;SHT30;53444;45.822;16.092;2023-05-19T09:28:33;17.36;77.14
66586;SHT30;53444;45.822;16.092;2023-05-19T09:31:01;17.42;77.18
66586;SHT30;53444;45.822;16.092;2023-05-19T09:33:28;17.51;77.05
66586;SHT30;53444;45.822;16.092;2023-05-19T09:35:55;17.28;77.13
66586;SHT30;53444;45.822;16.092;2023-05-19T09:38:23;17.27;78.09
66586;SHT30;53444;45.822;16.092;2023-05-19T09:40:51;17.11;78.28
66586;SHT30;53444;45.822;16.092;2023-05-19T09:43:17;16.83;78.35
66586;SHT30;53444;45.822;16.092;2023-05-19T09:45:46;16.71;78.08
66586;SHT30;53444;45.822;16.092;2023-05-19T09:48:13;16.90;78.13
66586;SHT30;53444;45.822;16.092;2023-05-19T09:50:41;17.20;77.49
66586;SHT30;53444;45.822;16.092;2023-05-19T09:53:11;17.55;76.59
66586;SHT30;53444;45.822;16.092;2023-05-19T09:55:39;17.52;76.78
66586;SHT30;53444;45.822;16.092;2023-05-19T09:58:06;18.07;75.30
66586;SHT30;53444;45.822;16.092;2023-05-19T10:00:32;18.24;74.76
66586;SHT30;53444;45.822;16.092;2023-05-19T10:03:02;18.18;75.13
66586;SHT30;53444;45.822;16.092;2023-05-19T10:05:30;18.64;74.65
66586;SHT30;53444;45.822;16.092;2023-05-19T10:07:58;18.95;73.07
66586;SHT30;53444;45.822;16.092;2023-05-19T10:10:26;18.71;72.85
66586;SHT30;53444;45.822;16.092;2023-05-19T10:12:54;18.96;73.04
66586;SHT30;53444;45.822;16.092;2023-05-19T10:15:21;19.27;71.61
66586;SHT30;53444;45.822;16.092;2023-05-19T10:17:48;19.18;71.75
66586;SHT30;53444;45.822;16.092;2023-05-19T10:20:17;19.94;70.59
66586;SHT30;53444;45.822;16.092;2023-05-19T10:22:45;19.95;69.44
66586;SHT30;53444;45.822;16.092;2023-05-19T10:25:13;20.42;68.31
66586;SHT30;53444;45.822;16.092;2023-05-19T10:27:45;19.90;69.26
66586;SHT30;53444;45.822;16.092;2023-05-19T10:30:17;19.45;69.44
66586;SHT30;53444;45.822;16.092;2023-05-19T10:32:46;18.89;71.58
66586;SHT30;53444;45.822;16.092;2023-05-19T10:35:52;18.87;71.70
66586;SHT30;53444;45.822;16.092;2023-05-19T10:38:31;18.72;71.40
66586;SHT30;53444;45.822;16.092;2023-05-19T10:41:03;18.62;71.94
66586;SHT30;53444;45.822;16.092;2023-05-19T10:43:43;18.60;72.47
66586;SHT30;53444;45.822;16.092;2023-05-19T10:46:12;18.23;74.11
66586;SHT30;53444;45.822;16.092;2023-05-19T10:48:43;18.13;73.89
66586;SHT30;53444;45.822;16.092;2023-05-19T10:51:13;18.06;74.08
66586;SHT30;53444;45.822;16.092;2023-05-19T10:53:41;18.03;74.67
66586;SHT30;53444;45.822;16.092;2023-05-19T10:56:11;18.18;73.93
66586;SHT30;53444;45.822;16.092;2023-05-19T10:58:50;17.99;74.37
66586;SHT30;53444;45.822;16.092;2023-05-19T11:01:18;17.96;75.23
66586;SHT30;53444;45.822;16.092;2023-05-19T11:03:46;17.89;74.83
66586;SHT30;53444;45.822;16.092;2023-05-19T11:06:25;17.75;76.04
66586;SHT30;53444;45.822;16.092;2023-05-19T11:08:53;17.70;75.64
66586;SHT30;53444;45.822;16.092;2023-05-19T11:11:20;17.73;76.00
66586;SHT30;53444;45.822;16.092;2023-05-19T11:13:49;17.75;75.86
66586;SHT30;53444;45.822;16.092;2023-05-19T11:16:18;17.79;75.11
66586;SHT30;53444;45.822;16.092;2023-05-19T11:18:48;17.63;75.36
66586;SHT30;53444;45.822;16.092;2023-05-19T11:21:18;17.52;76.05
66586;SHT30;53444;45.822;16.092;2023-05-19T11:23:46;17.22;77.18
66586;SHT30;53444;45.822;16.092;2023-05-19T11:26:13;17.34;77.07
66586;SHT30;53444;45.822;16.092;2023-05-19T11:28:39;17.45;76.84
66586;SHT30;53444;45.822;16.092;2023-05-19T11:31:07;17.35;77.69
66586;SHT30;53444;45.822;16.092;2023-05-19T11:33:36;17.51;77.63
66586;SHT30;53444;45.822;16.092;2023-05-19T11:36:03;17.46;76.54
66586;SHT30;53444;45.822;16.092;2023-05-19T11:38:31;17.59;76.66
66586;SHT30;53444;45.822;16.092;2023-05-19T11:41:02;17.76;76.06
66586;SHT30;53444;45.822;16.092;2023-05-19T11:43:29;17.99;75.76
66586;SHT30;53444;45.822;16.092;2023-05-19T11:45:55;18.03;75.34
66586;SHT30;53444;45.822;16.092;2023-05-19T11:48:23;17.96;75.52
66586;SHT30;53444;45.822;16.092;2023-05-19T11:50:50;17.90;76.28
66586;SHT30;53444;45.822;16.092;2023-05-19T11:53:26;17.94;76.17
66586;SHT30;53444;45.822;16.092;2023-05-19T11:56:03;17.78;75.98
66586;SHT30;53444;45.822;16.092;2023-05-19T11:58:30;17.61;76.26
66586;SHT30;53444;45.822;16.092;2023-05-19T12:01:02;17.43;76.74
66586;SHT30;53444;45.822;16.092;2023-05-19T12:03:29;17.46;76.59
66586;SHT30;53444;45.822;16.092;2023-05-19T12:05:59;17.29;77.28
66586;SHT30;53444;45.822;16.092;2023-05-19T12:08:28;17.38;77.82
66586;SHT30;53444;45.822;16.092;2023-05-19T12:11:20;17.76;77.11
66586;SHT30;53444;45.822;16.092;2023-05-19T12:14:17;18.00;76.30
66586;SHT30;53444;45.822;16.092;2023-05-19T12:16:58;18.10;75.89
66586;SHT30;53444;45.822;16.092;2023-05-19T12:19:42;18.13;75.73
66586;SHT30;53444;45.822;16.092;2023-05-19T12:23:03;18.04;75.75
66586;SHT30;53444;45.822;16.092;2023-05-19T12:29:15;17.55;77.61
66586;SHT30;53444;45.822;16.092;2023-05-19T12:32:04;17.56;76.76
66586;SHT30;53444;45.822;16.092;2023-05-19T12:35:00;17.87;75.97
66586;SHT30;53444;45.822;16.092;2023-05-19T12:38:10;18.11;76.32
66586;SHT30;53444;45.822;16.092;2023-05-19T12:40:39;18.14;74.86
66586;SHT30;53444;45.822;16.092;2023-05-19T12:43:20;18.16;76.39
66586;SHT30;53444;45.822;16.092;2023-05-19T12:45:49;17.87;76.08
66586;SHT30;53444;45.822;16.092;2023-05-19T12:48:16;17.86;76.15
66586;SHT30;53444;45.822;16.092;2023-05-19T12:51:07;17.59;76.99
66586;SHT30;53444;45.822;16.092;2023-05-19T12:54:01;17.72;77.03
66586;SHT30;53444;45.822;16.092;2023-05-19T12:56:49;17.65;76.93
66586;SHT30;53444;45.822;16.092;2023-05-19T12:59:25;17.59;77.26
66586;SHT30;53444;45.822;16.092;2023-05-19T13:02:20;17.65;77.43
66586;SHT30;53444;45.822;16.092;2023-05-19T13:05:08;17.70;78.04
66586;SHT30;53444;45.822;16.092;2023-05-19T13:07:39;17.61;77.13
66586;SHT30;53444;45.822;16.092;2023-05-19T13:10:06;17.70;77.46
66586;SHT30;53444;45.822;16.092;2023-05-19T13:12:33;17.86;76.66
66586;SHT30;53444;45.822;16.092;2023-05-19T13:15:00;17.97;76.66
66586;SHT30;53444;45.822;16.092;2023-05-19T13:17:28;18.04;76.44
66586;SHT30;53444;45.822;16.092;2023-05-19T13:20:02;18.31;76.38
66586;SHT30;53444;45.822;16.092;2023-05-19T13:23:08;18.69;75.01
66586;SHT30;53444;45.822;16.092;2023-05-19T13:25:52;18.61;74.53
66586;SHT30;53444;45.822;16.092;2023-05-19T13:31:52;19.09;73.75
66586;SHT30;53444;45.822;16.092;2023-05-19T13:34:36;19.05;73.59
66586;SHT30;53444;45.822;16.092;2023-05-19T13:40:44;18.48;75.54
66586;SHT30;53444;45.822;16.092;2023-05-19T13:47:04;17.89;76.53
66586;SHT30;53444;45.822;16.092;2023-05-19T13:49:31;17.82;77.09
66586;SHT30;53444;45.822;16.092;2023-05-19T13:52:25;17.83;77.20
66586;SHT30;53444;45.822;16.092;2023-05-19T13:55:20;17.78;77.78
66586;SHT30;53444;45.822;16.092;2023-05-19T13:58:16;17.75;77.83
66586;SHT30;53444;45.822;16.092;2023-05-19T14:00:56;17.76;77.55
66586;SHT30;53444;45.822;16.092;2023-05-19T14:03:30;17.76;77.61
66586;SHT30;53444;45.822;16.092;2023-05-19T14:06:17;17.78;77.76
66586;SHT30;53444;45.822;16.092;2023-05-19T14:08:58;17.63;78.25
66586;SHT30;53444;45.822;16.092;2023-05-19T14:11:47;17.63;78.30
66586;SHT30;53444;45.822;16.092;2023-05-19T14:14:45;17.55;78.72
66586;SHT30;53444;45.822;16.092;2023-05-19T14:20:47;17.46;79.20
66586;SHT30;53444;45.822;16.092;2023-05-19T14:23:14;17.45;79.46
66586;SHT30;53444;45.822;16.092;2023-05-19T14:25:42;17.46;79.07
66586;SHT30;53444;45.822;16.092;2023-05-19T14:28:09;17.42;79.21
66586;SHT30;53444;45.822;16.092;2023-05-19T14:30:36;17.42;79.42
66586;SHT30;53444;45.822;16.092;2023-05-19T14:33:02;17.43;79.10
66586;SHT30;53444;45.822;16.092;2023-05-19T14:35:29;17.46;79.17
66586;SHT30;53444;45.822;16.092;2023-05-19T14:37:56;17.53;79.19
66586;SHT30;53444;45.822;16.092;2023-05-19T14:40:22;17.56;78.98
66586;SHT30;53444;45.822;16.092;2023-05-19T14:42:51;17.59;78.87
66586;SHT30;53444;45.822;16.092;2023-05-19T14:45:17;17.61;78.54
66586;SHT30;53444;45.822;16.092;2023-05-19T14:47:46;17.65;79.09
66586;SHT30;53444;45.822;16.092;2023-05-19T14:50:12;17.63;78.79
66586;SHT30;53444;45.822;16.092;2023-05-19T14:52:39;17.53;79.42
66586;SHT30;53444;45.822;16.092;2023-05-19T14:55:06;17.56;79.73
66586;SHT30;53444;45.822;16.092;2023-05-19T14:57:33;17.59;79.46
66586;SHT30;53444;45.822;16.092;2023-05-19T15:00:01;17.55;79.10
66586;SHT30;53444;45.822;16.092;2023-05-19T15:02:28;17.58;78.64
66586;SHT30;53444;45.822;16.092;2023-05-19T15:04:54;17.89;78.08
66586;SHT30;53444;45.822;16.092;2023-05-19T15:07:21;18.20;77.33
66586;SHT30;53444;45.822;16.092;2023-05-19T15:09:48;18.47;76.52
66586;SHT30;53444;45.822;16.092;2023-05-19T15:12:15;18.65;75.97
66586;SHT30;53444;45.822;16.092;2023-05-19T15:14:42;18.76;75.65
66586;SHT30;53444;45.822;16.092;2023-05-19T15:17:10;18.74;75.19
66586;SHT30;53444;45.822;16.092;2023-05-19T15:19:36;18.60;75.94
66586;SHT30;53444;45.822;16.092;2023-05-19T15:22:05;18.71;76.09
66586;SHT30;53444;45.822;16.092;2023-05-19T15:24:31;18.76;75.90
66586;SHT30;53444;45.822;16.092;2023-05-19T15:27:00;18.74;75.93
66586;SHT30;53444;45.822;16.092;2023-05-19T15:29:26;18.57;76.39
66586;SHT30;53444;45.822;16.092;2023-05-19T15:31:54;18.55;76.40
66586;SHT30;53444;45.822;16.092;2023-05-19T15:34:23;18.58;76.66
66586;SHT30;53444;45.822;16.092;2023-05-19T15:36:50;18.62;76.73
66586;SHT30;53444;45.822;16.092;2023-05-19T15:39:19;18.57;76.41
66586;SHT30;53444;45.822;16.092;2023-05-19T15:41:45;18.67;76.55
66586;SHT30;53444;45.822;16.092;2023-05-19T15:44:12;18.58;76.61
66586;SHT30;53444;45.822;16.092;2023-05-19T15:46:38;18.57;76.96
66586;SHT30;53444;45.822;16.092;2023-05-19T15:49:05;18.52;77.05